sensor_id;sensor_type;location;lat;lon;timestamp;temperature;humidity
21037;DHT22;10677;50.942;4.028;2023-04-03T00:01:07;4.20;99.90
21037;DHT22;10677;50.942;4.028;2023-04-03T00:03:33;4.10;99.90
21037;DHT22;10677;50.942;4.028;2023-04-03T00:05:59;4.10;99.90
21037;DHT22;10677;50.942;4.028;2023-04-03T00:08:25;4.00;99.90
21037;DHT22;10677;50.942;4.028;2023-04-03T00:10:51;4.00;99.90
21037;DHT22;10677;50.942;4.028;2023-04-03T00:13:17;3.90;99.90
21037;DHT22;10677;50.942;4.028;2023-04-03T00:15:43;3.90;99.90
21037;DHT22;10677;50.942;4.028;2023-04-03T00:18:09;3.90;99.90
21037;DHT22;10677;50.942;4.028;2023-04-03T00:20:35;3.90;99.90
21037;DHT22;10677;50.942;4.028;2023-04-03T00:23:01;4.00;99.90
21037;DHT22;10677;50.942;4.028;2023-04-03T00:25:27;4.00;99.90
21037;DHT22;10677;50.942;4.028;2023-04-03T00:27:53;4.00;99.90
21037;DHT22;10677;50.942;4.028;2023-04-03T00:30:20;4.00;99.90
21037;DHT22;10677;50.942;4.028;2023-04-03T00:32:50;4.00;99.90
21037;DHT22;10677;50.942;4.028;2023-04-03T00:35:17;4.00;99.90
21037;DHT22;10677;50.942;4.028;2023-04-03T00:37:44;3.90;99.90
21037;DHT22;10677;50.942;4.028;2023-04-03T00:40:12;3.90;99.90
21037;DHT22;10677;50.942;4.028;2023-04-03T00:42:40;3.70;99.90
21037;DHT22;10677;50.942;4.028;2023-04-03T00:47:32;3.80;99.90
21037;DHT22;10677;50.942;4.028;2023-04-03T00:49:58;3.80;99.90
21037;DHT22;10677;50.942;4.028;2023-04-03T00:52:28;3.80;99.90
21037;DHT22;10677;50.942;4.028;2023-04-03T00:54:59;3.70;99.90
21037;DHT22;10677;50.942;4.028;2023-04-03T00:57:26;3.70;99.90
21037;DHT22;10677;50.942;4.028;2023-04-03T00:59:56;3.80;99.90
21037;DHT22;10677;50.942;4.028;2023-04-03T01:02:23;3.90;99.90
21037;DHT22;10677;50.942;4.028;2023-04-03T01:04:49;3.90;99.90
21037;DHT22;10677;50.942;4.028;2023-04-03T01:07:23;3.90;99.90
21037;DHT22;10677;50.942;4.028;2023-04-03T01:09:53;3.80;99.90
21037;DHT22;10677;50.942;4.028;2023-04-03T01:12:31;3.80;99.90
21037;DHT22;10677;50.942;4.028;2023-04-03T01:15:06;3.80;99.90
21037;DHT22;10677;50.942;4.028;2023-04-03T01:17:51;3.60;99.90
21037;DHT22;10677;50.942;4.028;2023-04-03T01:26:05;3.60;99.90
21037;DHT22;10677;50.942;4.028;2023-04-03T01:28:33;3.70;99.90
21037;DHT22;10677;50.942;4.028;2023-04-03T01:33:32;3.70;99.90
21037;DHT22;10677;50.942;4.028;2023-04-03T01:35:58;3.70;99.90
21037;DHT22;10677;50.942;4.028;2023-04-03T01:38:24;3.60;99.90
21037;DHT22;10677;50.942;4.028;2023-04-03T01:40:49;3.60;99.90
21037;DHT22;10677;50.942;4.028;2023-04-03T01:43:15;3.60;99.90
21037;DHT22;10677;50.942;4.028;2023-04-03T01:45:41;3.70;99.90
21037;DHT22;10677;50.942;4.028;2023-04-03T01:48:07;3.60;99.90
21037;DHT22;10677;50.942;4.028;2023-04-03T01:50:33;3.50;99.90
21037;DHT22;10677;50.942;4.028;2023-04-03T01:52:58;3.50;99.90
21037;DHT22;10677;50.942;4.028;2023-04-03T01:55:24;3.50;99.90
21037;DHT22;10677;50.942;4.028;2023-04-03T01:57:50;3.40;99.90
21037;DHT22;10677;50.942;4.028;2023-04-03T02:00:15;3.50;99.90
21037;DHT22;10677;50.942;4.028;2023-04-03T02:02:41;3.50;99.90
21037;DHT22;10677;50.942;4.028;2023-04-03T02:05:07;3.50;99.90
21037;DHT22;10677;50.942;4.028;2023-04-03T02:07:33;3.50;99.90
21037;DHT22;10677;50.942;4.028;2023-04-03T02:09:59;3.50;99.90
21037;DHT22;10677;50.942;4.028;2023-04-03T02:12:24;3.40;99.90
21037;DHT22;10677;50.942;4.028;2023-04-03T02:14:50;3.40;99.90
21037;DHT22;10677;50.942;4.028;2023-04-03T02:17:16;3.40;99.90
21037;DHT22;10677;50.942;4.028;2023-04-03T02:19:41;3.40;99.90
21037;DHT22;10677;50.942;4.028;2023-04-03T02:22:07;3.50;99.90
21037;DHT22;10677;50.942;4.028;2023-04-03T02:24:33;3.50;99.90
21037;DHT22;10677;50.942;4.028;2023-04-03T02:26:59;3.50;99.90
21037;DHT22;10677;50.942;4.028;2023-04-03T02:29:25;3.50;99.90
21037;DHT22;10677;50.942;4.028;2023-04-03T02:31:50;3.40;99.90
21037;DHT22;10677;50.942;4.028;2023-04-03T02:34:16;3.30;99.90
21037;DHT22;10677;50.942;4.028;2023-04-03T02:36:42;3.40;99.90
21037;DHT22;10677;50.942;4.028;2023-04-03T02:39:08;3.60;99.90
21037;DHT22;10677;50.942;4.028;2023-04-03T02:41:34;3.60;99.90
21037;DHT22;10677;50.942;4.028;2023-04-03T02:44:04;3.60;99.90
21037;DHT22;10677;50.942;4.028;2023-04-03T02:46:30;3.60;99.90
21037;DHT22;10677;50.942;4.028;2023-04-03T02:48:56;3.60;99.90
21037;DHT22;10677;50.942;4.028;2023-04-03T02:51:22;3.60;99.90
21037;DHT22;10677;50.942;4.028;2023-04-03T02:53:48;3.60;99.90
21037;DHT22;10677;50.942;4.028;2023-04-03T02:56:14;3.50;99.90
21037;DHT22;10677;50.942;4.028;2023-04-03T02:58:40;3.50;99.90
21037;DHT22;10677;50.942;4.028;2023-04-03T03:01:06;3.50;99.90
21037;DHT22;10677;50.942;4.028;2023-04-03T03:03:31;3.50;99.90
21037;DHT22;10677;50.942;4.028;2023-04-03T03:06:05;3.60;99.90
21037;DHT22;10677;50.942;4.028;2023-04-03T03:08:31;3.60;99.90
21037;DHT22;10677;50.942;4.028;2023-04-03T03:10:57;3.60;99.90
21037;DHT22;10677;50.942;4.028;2023-04-03T03:13:23;3.70;99.90
21037;DHT22;10677;50.942;4.028;2023-04-03T03:15:48;3.70;99.90
21037;DHT22;10677;50.942;4.028;2023-04-03T03:18:14;3.70;99.90
21037;DHT22;10677;50.942;4.028;2023-04-03T03:20:40;3.60;99.90
21037;DHT22;10677;50.942;4.028;2023-04-03T03:23:05;3.70;99.90
21037;DHT22;10677;50.942;4.028;2023-04-03T03:25:31;3.60;99.90
21037;DHT22;10677;50.942;4.028;2023-04-03T03:27:57;3.60;99.90
21037;DHT22;10677;50.942;4.028;2023-04-03T03:30:22;3.50;99.90
21037;DHT22;10677;50.942;4.028;2023-04-03T03:32:48;3.50;99.90
21037;DHT22;10677;50.942;4.028;2023-04-03T03:35:14;3.50;99.90
21037;DHT22;10677;50.942;4.028;2023-04-03T03:37:39;3.50;99.90
21037;DHT22;10677;50.942;4.028;2023-04-03T03:40:05;3.50;99.90
21037;DHT22;10677;50.942;4.028;2023-04-03T03:42:31;3.50;99.90
21037;DHT22;10677;50.942;4.028;2023-04-03T03:44:57;3.60;99.90
21037;DHT22;10677;50.942;4.028;2023-04-03T03:47:22;3.60;99.90
21037;DHT22;10677;50.942;4.028;2023-04-03T03:49:48;3.70;99.90
21037;DHT22;10677;50.942;4.028;2023-04-03T03:52:14;3.70;99.90
21037;DHT22;10677;50.942;4.028;2023-04-03T03:54:40;3.60;99.90
21037;DHT22;10677;50.942;4.028;2023-04-03T03:57:05;3.50;99.90
21037;DHT22;10677;50.942;4.028;2023-04-03T03:59:31;3.50;99.90
21037;DHT22;10677;50.942;4.028;2023-04-03T04:01:56;3.50;99.90
21037;DHT22;10677;50.942;4.028;2023-04-03T04:04:22;3.50;99.90
21037;DHT22;10677;50.942;4.028;2023-04-03T04:06:48;3.50;99.90
21037;DHT22;10677;50.942;4.028;2023-04-03T04:09:13;3.50;99.90
21037;DHT22;10677;50.942;4.028;2023-04-03T04:11:39;3.50;99.90
21037;DHT22;10677;50.942;4.028;2023-04-03T04:14:06;3.60;99.90
21037;DHT22;10677;50.942;4.028;2023-04-03T04:16:31;3.50;99.90
21037;DHT22;10677;50.942;4.028;2023-04-03T04:18:57;3.40;99.90
21037;DHT22;10677;50.942;4.028;2023-04-03T04:21:23;3.40;99.90
21037;DHT22;10677;50.942;4.028;2023-04-03T04:23:48;3.50;99.90
21037;DHT22;10677;50.942;4.028;2023-04-03T04:26:14;3.50;99.90
21037;DHT22;10677;50.942;4.028;2023-04-03T04:28:40;3.40;99.90
21037;DHT22;10677;50.942;4.028;2023-04-03T04:31:05;3.40;99.90
21037;DHT22;10677;50.942;4.028;2023-04-03T04:33:31;3.40;99.90
21037;DHT22;10677;50.942;4.028;2023-04-03T04:35:57;3.40;99.90
21037;DHT22;10677;50.942;4.028;2023-04-03T04:38:22;3.40;99.90
21037;DHT22;10677;50.942;4.028;2023-04-03T04:40:48;3.40;99.90
21037;DHT22;10677;50.942;4.028;2023-04-03T04:43:14;3.30;99.90
21037;DHT22;10677;50.942;4.028;2023-04-03T04:45:41;3.30;99.90
21037;DHT22;10677;50.942;4.028;2023-04-03T04:48:07;3.30;99.90
21037;DHT22;10677;50.942;4.028;2023-04-03T04:50:32;3.30;99.90
21037;DHT22;10677;50.942;4.028;2023-04-03T04:52:58;3.30;99.90
21037;DHT22;10677;50.942;4.028;2023-04-03T04:55:24;3.30;99.90
21037;DHT22;10677;50.942;4.028;2023-04-03T04:57:50;3.30;99.90
21037;DHT22;10677;50.942;4.028;2023-04-03T05:00:15;3.30;99.90
21037;DHT22;10677;50.942;4.028;2023-04-03T05:02:41;3.20;99.90
21037;DHT22;10677;50.942;4.028;2023-04-03T05:05:07;3.20;99.90
21037;DHT22;10677;50.942;4.028;2023-04-03T05:07:33;3.20;99.90
21037;DHT22;10677;50.942;4.028;2023-04-03T05:10:01;3.20;99.90
21037;DHT22;10677;50.942;4.028;2023-04-03T05:12:28;3.30;99.90
21037;DHT22;10677;50.942;4.028;2023-04-03T05:14:53;3.30;99.90
21037;DHT22;10677;50.942;4.028;2023-04-03T05:17:19;3.30;99.90
21037;DHT22;10677;50.942;4.028;2023-04-03T05:19:45;3.30;99.90
21037;DHT22;10677;50.942;4.028;2023-04-03T05:22:11;3.30;99.90
21037;DHT22;10677;50.942;4.028;2023-04-03T05:24:37;3.20;99.90
21037;DHT22;10677;50.942;4.028;2023-04-03T05:27:03;3.10;99.90
21037;DHT22;10677;50.942;4.028;2023-04-03T05:29:28;3.10;99.90
21037;DHT22;10677;50.942;4.028;2023-04-03T05:31:54;3.20;99.90
21037;DHT22;10677;50.942;4.028;2023-04-03T05:34:21;3.30;99.90
21037;DHT22;10677;50.942;4.028;2023-04-03T05:36:47;3.30;99.90
21037;DHT22;10677;50.942;4.028;2023-04-03T05:39:12;3.30;99.90
21037;DHT22;10677;50.942;4.028;2023-04-03T05:41:38;3.30;99.90
21037;DHT22;10677;50.942;4.028;2023-04-03T05:44:04;3.20;99.90
21037;DHT22;10677;50.942;4.028;2023-04-03T05:46:32;3.20;99.90
21037;DHT22;10677;50.942;4.028;2023-04-03T05:48:58;3.20;99.90
21037;DHT22;10677;50.942;4.028;2023-04-03T05:51:28;3.10;99.90
21037;DHT22;10677;50.942;4.028;2023-04-03T05:53:59;3.20;99.90
21037;DHT22;10677;50.942;4.028;2023-04-03T05:56:26;3.30;99.90
21037;DHT22;10677;50.942;4.028;2023-04-03T05:58:52;3.30;99.90
21037;DHT22;10677;50.942;4.028;2023-04-03T06:01:17;3.40;99.90
21037;DHT22;10677;50.942;4.028;2023-04-03T06:03:43;3.30;99.90
21037;DHT22;10677;50.942;4.028;2023-04-03T06:06:13;3.40;99.90
21037;DHT22;10677;50.942;4.028;2023-04-03T06:08:39;3.30;99.90
21037;DHT22;10677;50.942;4.028;2023-04-03T06:11:04;3.40;99.90
21037;DHT22;10677;50.942;4.028;2023-04-03T06:13:30;3.50;99.90
21037;DHT22;10677;50.942;4.028;2023-04-03T06:15:56;3.60;99.90
21037;DHT22;10677;50.942;4.028;2023-04-03T06:18:22;3.60;99.90
21037;DHT22;10677;50.942;4.028;2023-04-03T06:20:48;3.70;99.90
21037;DHT22;10677;50.942;4.028;2023-04-03T06:23:14;3.70;99.90
21037;DHT22;10677;50.942;4.028;2023-04-03T06:25:39;3.90;99.90
21037;DHT22;10677;50.942;4.028;2023-04-03T06:28:06;4.00;99.90
21037;DHT22;10677;50.942;4.028;2023-04-03T06:30:36;4.00;99.90
21037;DHT22;10677;50.942;4.028;2023-04-03T06:33:03;4.10;99.90
21037;DHT22;10677;50.942;4.028;2023-04-03T06:35:29;4.20;99.90
21037;DHT22;10677;50.942;4.028;2023-04-03T06:37:56;4.10;99.90
21037;DHT22;10677;50.942;4.028;2023-04-03T06:40:23;4.20;99.90
21037;DHT22;10677;50.942;4.028;2023-04-03T06:42:50;4.30;99.90
21037;DHT22;10677;50.942;4.028;2023-04-03T06:45:16;4.30;99.90
21037;DHT22;10677;50.942;4.028;2023-04-03T06:47:44;4.30;99.90
21037;DHT22;10677;50.942;4.028;2023-04-03T06:50:11;4.30;99.90
21037;DHT22;10677;50.942;4.028;2023-04-03T06:52:39;4.40;99.90
21037;DHT22;10677;50.942;4.028;2023-04-03T06:55:05;4.40;99.90
21037;DHT22;10677;50.942;4.028;2023-04-03T06:57:31;4.40;99.90
21037;DHT22;10677;50.942;4.028;2023-04-03T06:59:56;4.50;99.90
21037;DHT22;10677;50.942;4.028;2023-04-03T07:02:23;4.50;99.90
21037;DHT22;10677;50.942;4.028;2023-04-03T07:04:48;4.60;99.90
21037;DHT22;10677;50.942;4.028;2023-04-03T07:07:15;4.60;99.90
21037;DHT22;10677;50.942;4.028;2023-04-03T07:09:42;4.60;99.90
21037;DHT22;10677;50.942;4.028;2023-04-03T07:12:08;4.70;99.90
21037;DHT22;10677;50.942;4.028;2023-04-03T07:14:34;4.60;99.90
21037;DHT22;10677;50.942;4.028;2023-04-03T07:16:59;4.70;99.90
21037;DHT22;10677;50.942;4.028;2023-04-03T07:19:25;4.80;99.90
21037;DHT22;10677;50.942;4.028;2023-04-03T07:21:53;4.80;99.90
21037;DHT22;10677;50.942;4.028;2023-04-03T07:24:19;4.80;99.90
21037;DHT22;10677;50.942;4.028;2023-04-03T07:26:48;4.70;99.90
21037;DHT22;10677;50.942;4.028;2023-04-03T07:29:14;4.70;99.90
21037;DHT22;10677;50.942;4.028;2023-04-03T07:31:40;4.80;99.90
21037;DHT22;10677;50.942;4.028;2023-04-03T07:34:07;4.80;99.90
21037;DHT22;10677;50.942;4.028;2023-04-03T07:36:32;4.80;99.90
21037;DHT22;10677;50.942;4.028;2023-04-03T07:38:58;4.80;99.90
21037;DHT22;10677;50.942;4.028;2023-04-03T07:41:24;4.90;99.90
21037;DHT22;10677;50.942;4.028;2023-04-03T07:43:50;5.20;99.90
21037;DHT22;10677;50.942;4.028;2023-04-03T07:46:16;5.30;99.90
21037;DHT22;10677;50.942;4.028;2023-04-03T07:48:42;5.30;99.90
21037;DHT22;10677;50.942;4.028;2023-04-03T07:51:09;5.30;99.90
21037;DHT22;10677;50.942;4.028;2023-04-03T07:53:35;5.40;99.90
21037;DHT22;10677;50.942;4.028;2023-04-03T07:56:01;5.50;99.90
21037;DHT22;10677;50.942;4.028;2023-04-03T07:58:28;5.50;99.90
21037;DHT22;10677;50.942;4.028;2023-04-03T08:00:54;5.70;99.90
21037;DHT22;10677;50.942;4.028;2023-04-03T08:03:20;5.90;99.90
21037;DHT22;10677;50.942;4.028;2023-04-03T08:05:47;5.90;99.90
21037;DHT22;10677;50.942;4.028;2023-04-03T08:08:16;6.00;99.90
21037;DHT22;10677;50.942;4.028;2023-04-03T08:10:42;6.10;99.90
21037;DHT22;10677;50.942;4.028;2023-04-03T08:13:08;6.20;99.90
21037;DHT22;10677;50.942;4.028;2023-04-03T08:15:35;6.30;99.90
21037;DHT22;10677;50.942;4.028;2023-04-03T08:18:01;6.40;99.90
21037;DHT22;10677;50.942;4.028;2023-04-03T08:20:27;6.40;99.90
21037;DHT22;10677;50.942;4.028;2023-04-03T08:22:53;6.30;99.90
21037;DHT22;10677;50.942;4.028;2023-04-03T08:25:19;6.30;99.90
21037;DHT22;10677;50.942;4.028;2023-04-03T08:27:45;6.10;99.90
21037;DHT22;10677;50.942;4.028;2023-04-03T08:30:11;6.20;99.90
21037;DHT22;10677;50.942;4.028;2023-04-03T08:32:38;6.20;99.90
21037;DHT22;10677;50.942;4.028;2023-04-03T08:35:05;6.30;99.90
21037;DHT22;10677;50.942;4.028;2023-04-03T08:37:31;6.30;99.90
21037;DHT22;10677;50.942;4.028;2023-04-03T08:39:57;6.20;99.90
21037;DHT22;10677;50.942;4.028;2023-04-03T08:42:54;6.30;99.90
21037;DHT22;10677;50.942;4.028;2023-04-03T08:50:45;6.50;99.90
21037;DHT22;10677;50.942;4.028;2023-04-03T08:53:17;6.50;99.90
21037;DHT22;10677;50.942;4.028;2023-04-03T08:55:49;6.60;99.90
21037;DHT22;10677;50.942;4.028;2023-04-03T08:58:21;6.70;99.90
21037;DHT22;10677;50.942;4.028;2023-04-03T09:00:51;6.80;99.90
21037;DHT22;10677;50.942;4.028;2023-04-03T09:03:19;6.90;99.90
21037;DHT22;10677;50.942;4.028;2023-04-03T09:06:03;6.90;99.90
21037;DHT22;10677;50.942;4.028;2023-04-03T09:09:02;7.00;99.90
21037;DHT22;10677;50.942;4.028;2023-04-03T09:11:46;7.20;99.90
21037;DHT22;10677;50.942;4.028;2023-04-03T09:14:39;7.20;99.90
21037;DHT22;10677;50.942;4.028;2023-04-03T09:18:05;7.10;99.90
21037;DHT22;10677;50.942;4.028;2023-04-03T09:20:43;6.90;99.90
21037;DHT22;10677;50.942;4.028;2023-04-03T09:23:17;7.00;99.90
21037;DHT22;10677;50.942;4.028;2023-04-03T09:25:43;7.20;99.90
21037;DHT22;10677;50.942;4.028;2023-04-03T09:28:10;7.10;99.90
21037;DHT22;10677;50.942;4.028;2023-04-03T09:30:36;7.00;99.90
21037;DHT22;10677;50.942;4.028;2023-04-03T09:33:03;7.10;99.90
21037;DHT22;10677;50.942;4.028;2023-04-03T09:35:34;7.20;99.90
21037;DHT22;10677;50.942;4.028;2023-04-03T09:40:39;7.30;99.90
21037;DHT22;10677;50.942;4.028;2023-04-03T09:43:36;7.40;99.90
21037;DHT22;10677;50.942;4.028;2023-04-03T09:46:23;7.60;99.90
21037;DHT22;10677;50.942;4.028;2023-04-03T09:49:00;7.60;99.90
21037;DHT22;10677;50.942;4.028;2023-04-03T09:51:27;7.70;99.90
21037;DHT22;10677;50.942;4.028;2023-04-03T09:53:54;7.80;99.90
21037;DHT22;10677;50.942;4.028;2023-04-03T09:56:26;7.70;99.90
21037;DHT22;10677;50.942;4.028;2023-04-03T10:01:31;7.90;99.90
21037;DHT22;10677;50.942;4.028;2023-04-03T10:04:12;8.10;99.90
21037;DHT22;10677;50.942;4.028;2023-04-03T10:06:41;8.10;99.90
21037;DHT22;10677;50.942;4.028;2023-04-03T10:09:28;8.10;99.90
21037;DHT22;10677;50.942;4.028;2023-04-03T10:12:08;8.00;99.90
21037;DHT22;10677;50.942;4.028;2023-04-03T10:14:56;8.00;99.90
21037;DHT22;10677;50.942;4.028;2023-04-03T10:20:07;8.30;99.90
21037;DHT22;10677;50.942;4.028;2023-04-03T10:22:46;8.20;99.90
21037;DHT22;10677;50.942;4.028;2023-04-03T10:25:36;8.10;99.90
21037;DHT22;10677;50.942;4.028;2023-04-03T10:28:56;8.10;99.90
21037;DHT22;10677;50.942;4.028;2023-04-03T10:31:20;8.20;99.90
21037;DHT22;10677;50.942;4.028;2023-04-03T10:37:11;8.40;99.90
21037;DHT22;10677;50.942;4.028;2023-04-03T10:39:59;8.40;99.90
21037;DHT22;10677;50.942;4.028;2023-04-03T10:42:50;8.50;99.90
21037;DHT22;10677;50.942;4.028;2023-04-03T10:45:35;8.70;99.90
21037;DHT22;10677;50.942;4.028;2023-04-03T10:56:37;9.20;99.90
21037;DHT22;10677;50.942;4.028;2023-04-03T10:59:49;9.30;99.90
21037;DHT22;10677;50.942;4.028;2023-04-03T11:04:45;9.40;99.90
21037;DHT22;10677;50.942;4.028;2023-04-03T11:07:20;9.30;99.90
21037;DHT22;10677;50.942;4.028;2023-04-03T11:09:51;9.40;99.90
21037;DHT22;10677;50.942;4.028;2023-04-03T11:14:47;9.50;99.90
21037;DHT22;10677;50.942;4.028;2023-04-03T11:22:39;9.70;99.90
21037;DHT22;10677;50.942;4.028;2023-04-03T11:27:56;9.60;99.90
21037;DHT22;10677;50.942;4.028;2023-04-03T11:38:45;10.10;99.90
21037;DHT22;10677;50.942;4.028;2023-04-03T11:41:13;10.30;99.90
21037;DHT22;10677;50.942;4.028;2023-04-03T11:44:04;10.20;99.90
21037;DHT22;10677;50.942;4.028;2023-04-03T12:00:51;10.50;99.90
21037;DHT22;10677;50.942;4.028;2023-04-03T12:24:33;10.60;99.90
21037;DHT22;10677;50.942;4.028;2023-04-03T12:38:48;11.50;99.90
21037;DHT22;10677;50.942;4.028;2023-04-03T12:41:18;11.40;99.90
21037;DHT22;10677;50.942;4.028;2023-04-03T12:46:23;11.00;99.90
21037;DHT22;10677;50.942;4.028;2023-04-03T12:51:22;11.10;99.90
21037;DHT22;10677;50.942;4.028;2023-04-03T12:53:54;11.20;99.90
21037;DHT22;10677;50.942;4.028;2023-04-03T12:56:28;11.20;99.90
21037;DHT22;10677;50.942;4.028;2023-04-03T12:58:57;11.40;99.90
21037;DHT22;10677;50.942;4.028;2023-04-03T13:01:37;11.60;99.90
21037;DHT22;10677;50.942;4.028;2023-04-03T13:04:03;11.60;99.90
21037;DHT22;10677;50.942;4.028;2023-04-03T13:06:48;11.60;99.90
21037;DHT22;10677;50.942;4.028;2023-04-03T13:09:25;11.60;99.90
21037;DHT22;10677;50.942;4.028;2023-04-03T13:12:14;11.70;99.90
21037;DHT22;10677;50.942;4.028;2023-04-03T13:14:40;11.90;99.90
21037;DHT22;10677;50.942;4.028;2023-04-03T13:17:17;12.10;99.90
21037;DHT22;10677;50.942;4.028;2023-04-03T13:19:44;12.20;99.90
21037;DHT22;10677;50.942;4.028;2023-04-03T13:25:22;12.30;99.90
21037;DHT22;10677;50.942;4.028;2023-04-03T13:27:49;12.10;99.90
21037;DHT22;10677;50.942;4.028;2023-04-03T13:30:25;11.90;99.90
21037;DHT22;10677;50.942;4.028;2023-04-03T13:32:52;11.80;99.90
21037;DHT22;10677;50.942;4.028;2023-04-03T13:35:39;11.50;99.90
21037;DHT22;10677;50.942;4.028;2023-04-03T13:38:28;11.60;99.90
21037;DHT22;10677;50.942;4.028;2023-04-03T13:40:59;11.90;99.90
21037;DHT22;10677;50.942;4.028;2023-04-03T13:43:35;12.20;99.90
21037;DHT22;10677;50.942;4.028;2023-04-03T13:46:23;12.50;99.90
21037;DHT22;10677;50.942;4.028;2023-04-03T13:48:50;12.90;99.90
21037;DHT22;10677;50.942;4.028;2023-04-03T13:51:26;12.70;99.90
21037;DHT22;10677;50.942;4.028;2023-04-03T13:56:38;12.80;99.90
21037;DHT22;10677;50.942;4.028;2023-04-03T14:01:45;14.30;99.90
21037;DHT22;10677;50.942;4.028;2023-04-03T14:07:03;15.50;99.90
21037;DHT22;10677;50.942;4.028;2023-04-03T14:09:29;15.70;99.90
21037;DHT22;10677;50.942;4.028;2023-04-03T14:12:04;17.00;99.90
21037;DHT22;10677;50.942;4.028;2023-04-03T14:14:33;17.90;98.30
21037;DHT22;10677;50.942;4.028;2023-04-03T14:17:01;19.20;95.20
21037;DHT22;10677;50.942;4.028;2023-04-03T14:19:31;18.30;93.40
21037;DHT22;10677;50.942;4.028;2023-04-03T14:21:58;18.10;93.10
21037;DHT22;10677;50.942;4.028;2023-04-03T14:24:25;19.10;93.70
21037;DHT22;10677;50.942;4.028;2023-04-03T14:26:53;20.20;92.40
21037;DHT22;10677;50.942;4.028;2023-04-03T14:29:20;20.30;90.40
21037;DHT22;10677;50.942;4.028;2023-04-03T14:31:48;19.40;90.20
21037;DHT22;10677;50.942;4.028;2023-04-03T14:34:15;17.80;90.30
21037;DHT22;10677;50.942;4.028;2023-04-03T14:36:43;17.20;91.30
21037;DHT22;10677;50.942;4.028;2023-04-03T14:39:16;16.70;91.60
21037;DHT22;10677;50.942;4.028;2023-04-03T14:41:43;17.00;92.00
21037;DHT22;10677;50.942;4.028;2023-04-03T14:44:08;18.40;91.80
21037;DHT22;10677;50.942;4.028;2023-04-03T14:46:37;19.20;90.10
21037;DHT22;10677;50.942;4.028;2023-04-03T14:49:08;18.90;88.80
21037;DHT22;10677;50.942;4.028;2023-04-03T14:51:37;18.80;89.20
21037;DHT22;10677;50.942;4.028;2023-04-03T14:54:03;18.70;89.60
21037;DHT22;10677;50.942;4.028;2023-04-03T14:56:30;18.80;89.40
21037;DHT22;10677;50.942;4.028;2023-04-03T14:58:58;18.30;90.20
21037;DHT22;10677;50.942;4.028;2023-04-03T15:01:26;19.00;89.00
21037;DHT22;10677;50.942;4.028;2023-04-03T15:03:51;19.60;86.90
21037;DHT22;10677;50.942;4.028;2023-04-03T15:06:17;20.20;85.30
21037;DHT22;10677;50.942;4.028;2023-04-03T15:08:44;19.90;85.70
21037;DHT22;10677;50.942;4.028;2023-04-03T15:11:11;21.80;84.70
21037;DHT22;10677;50.942;4.028;2023-04-03T15:13:37;22.70;82.50
21037;DHT22;10677;50.942;4.028;2023-04-03T15:16:04;22.50;81.60
21037;DHT22;10677;50.942;4.028;2023-04-03T15:18:35;23.50;79.70
21037;DHT22;10677;50.942;4.028;2023-04-03T15:21:03;23.80;77.80
21037;DHT22;10677;50.942;4.028;2023-04-03T15:23:29;24.20;74.70
21037;DHT22;10677;50.942;4.028;2023-04-03T15:25:56;23.30;75.00
21037;DHT22;10677;50.942;4.028;2023-04-03T15:28:29;21.40;74.90
21037;DHT22;10677;50.942;4.028;2023-04-03T15:30:55;20.60;76.00
21037;DHT22;10677;50.942;4.028;2023-04-03T15:33:22;20.30;77.10
21037;DHT22;10677;50.942;4.028;2023-04-03T15:35:48;21.00;76.30
21037;DHT22;10677;50.942;4.028;2023-04-03T15:38:13;21.20;76.40
21037;DHT22;10677;50.942;4.028;2023-04-03T15:40:40;21.30;75.20
21037;DHT22;10677;50.942;4.028;2023-04-03T15:43:06;21.30;75.00
21037;DHT22;10677;50.942;4.028;2023-04-03T15:45:34;21.00;74.10
21037;DHT22;10677;50.942;4.028;2023-04-03T15:48:01;20.60;73.70
21037;DHT22;10677;50.942;4.028;2023-04-03T15:50:27;20.50;73.70
21037;DHT22;10677;50.942;4.028;2023-04-03T15:52:53;19.60;75.50
21037;DHT22;10677;50.942;4.028;2023-04-03T15:55:28;18.90;75.60
21037;DHT22;10677;50.942;4.028;2023-04-03T15:57:54;18.90;76.50
21037;DHT22;10677;50.942;4.028;2023-04-03T16:00:21;18.70;76.50
21037;DHT22;10677;50.942;4.028;2023-04-03T16:02:49;18.60;77.00
21037;DHT22;10677;50.942;4.028;2023-04-03T16:05:17;18.40;76.80
21037;DHT22;10677;50.942;4.028;2023-04-03T16:07:44;18.70;77.20
21037;DHT22;10677;50.942;4.028;2023-04-03T16:10:11;19.50;77.40
21037;DHT22;10677;50.942;4.028;2023-04-03T16:12:37;20.10;74.80
21037;DHT22;10677;50.942;4.028;2023-04-03T16:15:03;20.30;74.10
21037;DHT22;10677;50.942;4.028;2023-04-03T16:17:31;20.50;74.40
21037;DHT22;10677;50.942;4.028;2023-04-03T16:19:58;20.40;74.20
21037;DHT22;10677;50.942;4.028;2023-04-03T16:22:25;20.10;73.50
21037;DHT22;10677;50.942;4.028;2023-04-03T16:24:51;19.10;73.70
21037;DHT22;10677;50.942;4.028;2023-04-03T16:27:17;18.40;74.80
21037;DHT22;10677;50.942;4.028;2023-04-03T16:29:43;17.50;75.70
21037;DHT22;10677;50.942;4.028;2023-04-03T16:32:09;17.50;76.50
21037;DHT22;10677;50.942;4.028;2023-04-03T16:34:35;18.10;76.10
21037;DHT22;10677;50.942;4.028;2023-04-03T16:37:00;18.80;75.60
21037;DHT22;10677;50.942;4.028;2023-04-03T16:39:28;19.50;74.80
21037;DHT22;10677;50.942;4.028;2023-04-03T16:41:54;19.20;74.40
21037;DHT22;10677;50.942;4.028;2023-04-03T16:44:20;18.50;75.00
21037;DHT22;10677;50.942;4.028;2023-04-03T16:46:46;18.30;75.90
21037;DHT22;10677;50.942;4.028;2023-04-03T16:49:12;17.80;76.40
21037;DHT22;10677;50.942;4.028;2023-04-03T16:51:37;17.50;76.60
21037;DHT22;10677;50.942;4.028;2023-04-03T16:54:03;17.30;77.00
21037;DHT22;10677;50.942;4.028;2023-04-03T16:56:29;17.50;77.10
21037;DHT22;10677;50.942;4.028;2023-04-03T16:58:55;18.10;76.50
21037;DHT22;10677;50.942;4.028;2023-04-03T17:01:21;18.20;75.70
21037;DHT22;10677;50.942;4.028;2023-04-03T17:03:47;18.30;76.20
21037;DHT22;10677;50.942;4.028;2023-04-03T17:06:17;18.40;76.10
21037;DHT22;10677;50.942;4.028;2023-04-03T17:08:44;18.30;76.00
21037;DHT22;10677;50.942;4.028;2023-04-03T17:11:10;18.10;76.80
21037;DHT22;10677;50.942;4.028;2023-04-03T17:13:36;17.60;76.90
21037;DHT22;10677;50.942;4.028;2023-04-03T17:16:04;16.90;78.00
21037;DHT22;10677;50.942;4.028;2023-04-03T17:18:31;17.00;78.40
21037;DHT22;10677;50.942;4.028;2023-04-03T17:20:57;17.10;78.90
21037;DHT22;10677;50.942;4.028;2023-04-03T17:23:25;17.20;79.10
21037;DHT22;10677;50.942;4.028;2023-04-03T17:25:51;17.10;79.10
21037;DHT22;10677;50.942;4.028;2023-04-03T17:28:18;17.00;80.50
21037;DHT22;10677;50.942;4.028;2023-04-03T17:30:44;17.00;80.50
21037;DHT22;10677;50.942;4.028;2023-04-03T17:33:10;16.80;81.10
21037;DHT22;10677;50.942;4.028;2023-04-03T17:35:35;15.80;81.90
21037;DHT22;10677;50.942;4.028;2023-04-03T17:38:01;14.70;85.10
21037;DHT22;10677;50.942;4.028;2023-04-03T17:40:27;14.10;86.60
21037;DHT22;10677;50.942;4.028;2023-04-03T17:42:52;13.50;88.30
21037;DHT22;10677;50.942;4.028;2023-04-03T17:45:18;13.00;89.30
21037;DHT22;10677;50.942;4.028;2023-04-03T17:47:43;12.50;90.50
21037;DHT22;10677;50.942;4.028;2023-04-03T17:50:11;12.30;91.40